createdAt,value
2023-05-19T00:00:33.871Z,75.16
2023-05-19T00:01:33.549Z,75.28
2023-05-19T00:02:33.999Z,75.34
2023-05-19T00:03:33.547Z,75.39
2023-05-19T00:04:33.573Z,75.42
2023-05-19T00:05:34.609Z,75.34
2023-05-19T00:06:34.505Z,75.32
2023-05-19T00:07:33.467Z,75.15
2023-05-19T00:08:33.705Z,75.12
2023-05-19T00:09:33.413Z,74.97
2023-05-19T00:10:33.650Z,74.71
2023-05-19T00:11:33.393Z,74.58
2023-05-19T00:12:33.374Z,74.53
2023-05-19T00:13:33.460Z,74.52
2023-05-19T00:14:33.442Z,74.59
2023-05-19T00:15:33.368Z,74.66
2023-05-19T00:16:33.661Z,74.70
2023-05-19T00:17:33.409Z,74.84
2023-05-19T00:18:33.638Z,74.90
2023-05-19T00:19:33.310Z,75.06
2023-05-19T00:20:33.567Z,75.10
2023-05-19T00:21:33.299Z,75.20
2023-05-19T00:22:33.805Z,75.22
2023-05-19T00:23:33.753Z,74.96
2023-05-19T00:24:33.785Z,74.94
2023-05-19T00:25:33.264Z,75.02
2023-05-19T00:26:33.254Z,75.02
2023-05-19T00:27:33.199Z,75.29
2023-05-19T00:28:33.186Z,75.29
2023-05-19T00:29:35.184Z,75.50
2023-05-19T00:30:33.577Z,75.64
2023-05-19T00:31:33.438Z,75.93
2023-05-19T00:32:33.426Z,76.03
2023-05-19T00:33:33.165Z,76.10
2023-05-19T00:34:33.108Z,76.15
2023-05-19T00:35:33.150Z,76.20
2023-05-19T00:36:33.125Z,76.36
2023-05-19T00:37:33.088Z,76.42
2023-05-19T00:38:33.588Z,76.42
2023-05-19T00:39:33.061Z,76.34
2023-05-19T00:40:33.965Z,76.27
2023-05-19T00:41:33.474Z,76.08
2023-05-19T00:42:33.053Z,75.72
2023-05-19T00:43:33.007Z,75.50
2023-05-19T00:44:33.116Z,75.41
2023-05-19T00:45:33.466Z,75.46
2023-05-19T00:46:33.005Z,75.45
2023-05-19T00:47:33.108Z,75.50
2023-05-19T00:48:33.652Z,75.52
2023-05-19T00:49:32.938Z,75.55
2023-05-19T00:50:33.785Z,75.55
2023-05-19T00:51:32.958Z,75.47
2023-05-19T00:52:33.440Z,75.40
2023-05-19T00:53:33.535Z,75.42
2023-05-19T00:54:32.881Z,75.43
2023-05-19T00:55:32.887Z,75.44
2023-05-19T00:56:33.037Z,75.49
2023-05-19T00:57:32.871Z,75.60
2023-05-19T00:58:32.974Z,75.64
2023-05-19T00:59:32.851Z,75.62
2023-05-19T01:00:33.020Z,75.66
2023-05-19T01:01:32.884Z,75.72
2023-05-19T01:02:32.928Z,75.72
2023-05-19T01:03:33.072Z,75.80
2023-05-19T01:04:32.871Z,75.84
2023-05-19T01:05:32.873Z,75.78
2023-05-19T01:06:32.735Z,75.77
2023-05-19T01:07:32.757Z,75.80
2023-05-19T01:08:32.734Z,75.91
2023-05-19T01:09:32.872Z,76.01
2023-05-19T01:10:33.114Z,76.16
2023-05-19T01:11:32.709Z,76.21
2023-05-19T01:12:32.876Z,76.25
2023-05-19T01:13:32.674Z,76.38
2023-05-19T01:14:32.655Z,76.42
2023-05-19T01:15:32.657Z,76.51
2023-05-19T01:16:32.682Z,76.60
2023-05-19T01:17:32.676Z,76.67
2023-05-19T01:18:32.796Z,76.68
2023-05-19T01:19:32.597Z,76.73
2023-05-19T01:20:33.197Z,76.80
2023-05-19T01:21:32.883Z,76.77
2023-05-19T01:22:32.566Z,76.76
2023-05-19T01:23:32.590Z,76.83
2023-05-19T01:24:32.893Z,76.95
2023-05-19T01:25:32.551Z,76.97
2023-05-19T01:26:32.509Z,77.07
2023-05-19T01:27:32.891Z,77.17
2023-05-19T01:28:32.888Z,77.27
2023-05-19T01:29:32.519Z,77.35
2023-05-19T01:30:32.726Z,77.54
2023-05-19T01:31:32.510Z,77.64
2023-05-19T01:32:32.486Z,77.66
2023-05-19T01:33:32.465Z,77.78
2023-05-19T01:34:33.242Z,77.85
2023-05-19T01:35:32.417Z,78.07
2023-05-19T01:36:32.520Z,78.15
2023-05-19T01:37:32.409Z,78.22
2023-05-19T01:38:32.394Z,78.34
2023-05-19T01:39:32.404Z,78.45
2023-05-19T01:40:32.647Z,78.52
2023-05-19T01:41:32.369Z,78.67
2023-05-19T01:42:32.899Z,78.68
2023-05-19T01:43:32.362Z,78.76
2023-05-19T01:44:33.301Z,78.76
2023-05-19T01:45:32.383Z,78.78
2023-05-19T01:46:32.353Z,78.91
2023-05-19T01:47:32.325Z,79.07
2023-05-19T01:48:32.300Z,79.06
2023-05-19T01:49:32.913Z,78.96
2023-05-19T01:50:33.680Z,78.78
2023-05-19T01:51:32.251Z,78.64
2023-05-19T01:52:32.253Z,78.44
2023-05-19T01:53:32.316Z,78.43
2023-05-19T01:54:32.314Z,78.37
2023-05-19T01:55:32.214Z,78.26
2023-05-19T01:56:32.202Z,78.28
2023-05-19T01:57:32.393Z,78.30
2023-05-19T01:58:32.413Z,78.26
2023-05-19T01:59:32.167Z,78.26
2023-05-19T02:00:32.549Z,78.25
2023-05-19T02:01:32.551Z,78.29
2023-05-19T02:02:32.203Z,78.35
2023-05-19T02:03:32.147Z,78.51
2023-05-19T02:04:32.232Z,78.61
2023-05-19T02:05:32.104Z,78.68
2023-05-19T02:06:32.257Z,78.71
2023-05-19T02:07:32.275Z,78.88
2023-05-19T02:08:32.325Z,79.14
2023-05-19T02:09:32.357Z,79.26
2023-05-19T02:10:32.487Z,79.56
2023-05-19T02:11:32.048Z,79.72
2023-05-19T02:12:32.061Z,79.88
2023-05-19T02:13:32.009Z,79.98
2023-05-19T02:14:32.067Z,80.14
2023-05-19T02:15:32.077Z,80.11
2023-05-19T02:16:32.551Z,80.15
2023-05-19T02:17:32.006Z,80.27
2023-05-19T02:18:31.946Z,80.41
2023-05-19T02:19:31.931Z,80.43
2023-05-19T02:20:32.110Z,80.51
2023-05-19T02:21:31.934Z,80.60
2023-05-19T02:22:31.936Z,80.61
2023-05-19T02:23:31.968Z,80.63
2023-05-19T02:24:31.926Z,80.72
2023-05-19T02:25:31.943Z,80.83
2023-05-19T02:26:31.877Z,80.88
2023-05-19T02:27:31.823Z,80.87
2023-05-19T02:28:31.941Z,80.86
2023-05-19T02:29:31.834Z,80.81
2023-05-19T02:30:32.286Z,80.83
2023-05-19T02:31:31.943Z,80.81
2023-05-19T02:32:32.001Z,80.81
2023-05-19T02:33:31.949Z,80.76
2023-05-19T02:34:31.730Z,80.74
2023-05-19T02:35:31.969Z,80.77
2023-05-19T02:36:31.705Z,80.74
2023-05-19T02:37:31.811Z,80.78
2023-05-19T02:38:31.977Z,80.79
2023-05-19T02:39:31.958Z,80.82
2023-05-19T02:40:32.092Z,80.80
2023-05-19T02:41:31.963Z,80.84
2023-05-19T02:42:31.642Z,80.94
2023-05-19T02:43:31.666Z,80.94
2023-05-19T02:44:31.630Z,80.95
2023-05-19T02:45:31.639Z,80.98
2023-05-19T02:46:31.707Z,81.03
2023-05-19T02:47:31.783Z,81.10
2023-05-19T02:48:31.757Z,81.15
2023-05-19T02:49:31.793Z,81.25
2023-05-19T02:50:31.778Z,81.28
2023-05-19T02:51:31.551Z,81.38
2023-05-19T02:52:31.633Z,81.40
2023-05-19T02:53:31.545Z,81.41
2023-05-19T02:54:31.707Z,81.42
2023-05-19T02:55:31.737Z,81.42
2023-05-19T02:56:31.790Z,81.41
2023-05-19T02:57:31.481Z,81.41
2023-05-19T02:58:31.474Z,81.39
2023-05-19T02:59:31.485Z,81.46
2023-05-19T03:00:31.784Z,81.51
2023-05-19T03:01:31.490Z,81.50
2023-05-19T03:02:31.512Z,81.48
2023-05-19T03:03:31.558Z,81.51
2023-05-19T03:04:31.537Z,81.49
2023-05-19T03:05:31.992Z,81.45
2023-05-19T03:06:31.354Z,81.46
2023-05-19T03:07:31.388Z,81.55
2023-05-19T03:08:31.365Z,81.49
2023-05-19T03:09:31.352Z,81.49
2023-05-19T03:10:31.538Z,81.53
2023-05-19T03:11:31.321Z,81.53
2023-05-19T03:12:31.333Z,81.56
2023-05-19T03:13:31.976Z,81.55
2023-05-19T03:14:31.265Z,81.55
2023-05-19T03:15:31.323Z,81.56
2023-05-19T03:16:32.079Z,81.61
2023-05-19T03:17:31.332Z,81.60
2023-05-19T03:18:31.253Z,81.57
2023-05-19T03:19:31.266Z,81.59
2023-05-19T03:20:32.141Z,81.61
2023-05-19T03:21:32.151Z,81.64
2023-05-19T03:22:31.222Z,81.65
2023-05-19T03:23:31.186Z,81.72
2023-05-19T03:24:31.164Z,81.72
2023-05-19T03:25:31.917Z,81.71
2023-05-19T03:26:31.152Z,81.71
2023-05-19T03:27:31.168Z,81.57
2023-05-19T03:28:31.186Z,81.51
2023-05-19T03:29:31.959Z,81.58
2023-05-19T03:30:31.267Z,81.61
2023-05-19T03:31:31.080Z,81.62
2023-05-19T03:32:31.682Z,81.60
2023-05-19T03:33:32.079Z,81.63
2023-05-19T03:34:31.059Z,81.67
2023-05-19T03:35:31.075Z,81.73
2023-05-19T03:36:31.123Z,81.75
2023-05-19T03:37:31.022Z,81.76
2023-05-19T03:38:31.052Z,81.79
2023-05-19T03:39:31.001Z,81.78
2023-05-19T03:40:31.144Z,81.81
2023-05-19T03:41:30.999Z,81.84
2023-05-19T03:42:30.998Z,81.88
2023-05-19T03:43:30.976Z,81.90
2023-05-19T03:44:31.002Z,81.95
2023-05-19T03:45:30.963Z,81.97
2023-05-19T03:46:30.927Z,82.03
2023-05-19T03:47:30.936Z,82.10
2023-05-19T03:48:30.946Z,82.09
2023-05-19T03:49:30.872Z,82.09
2023-05-19T03:50:31.301Z,81.99
2023-05-19T03:51:30.885Z,81.96
2023-05-19T03:52:30.897Z,81.93
2023-05-19T03:53:31.080Z,81.96
2023-05-19T03:54:30.831Z,81.98
2023-05-19T03:55:30.848Z,81.98
2023-05-19T03:56:31.045Z,82.07
2023-05-19T03:57:30.779Z,82.09
2023-05-19T03:58:30.803Z,82.08
2023-05-19T03:59:31.419Z,82.07
2023-05-19T04:00:31.147Z,82.08
2023-05-19T04:01:30.784Z,82.08
2023-05-19T04:02:30.839Z,82.13
2023-05-19T04:03:30.774Z,82.20
2023-05-19T04:04:30.803Z,82.26
2023-05-19T04:05:30.751Z,82.33
2023-05-19T04:06:30.714Z,82.36
2023-05-19T04:07:30.663Z,82.39
2023-05-19T04:08:31.026Z,82.43
2023-05-19T04:09:30.669Z,82.48
2023-05-19T04:10:30.831Z,82.47
2023-05-19T04:11:30.636Z,82.53
2023-05-19T04:12:30.646Z,82.54
2023-05-19T04:13:31.026Z,82.63
2023-05-19T04:14:31.055Z,82.71
2023-05-19T04:15:30.683Z,82.77
2023-05-19T04:16:30.629Z,82.81
2023-05-19T04:17:31.444Z,82.86
2023-05-19T04:18:30.567Z,82.93
2023-05-19T04:19:30.563Z,82.98
2023-05-19T04:20:31.055Z,83.02
2023-05-19T04:21:31.023Z,83.06
2023-05-19T04:22:30.513Z,83.08
2023-05-19T04:23:31.194Z,83.07
2023-05-19T04:24:30.492Z,83.12
2023-05-19T04:25:30.521Z,83.16
2023-05-19T04:26:30.493Z,83.25
2023-05-19T04:27:30.442Z,83.35
2023-05-19T04:28:30.465Z,83.42
2023-05-19T04:29:30.489Z,83.34
2023-05-19T04:30:30.551Z,83.33
2023-05-19T04:31:30.493Z,83.34
2023-05-19T04:32:30.436Z,83.36
2023-05-19T04:33:30.662Z,83.34
2023-05-19T04:34:30.387Z,83.40
2023-05-19T04:35:30.356Z,83.40
2023-05-19T04:36:30.354Z,83.47
2023-05-19T04:37:30.763Z,83.46
2023-05-19T04:38:30.343Z,83.48
2023-05-19T04:39:30.815Z,83.37
2023-05-19T04:40:30.469Z,83.26
2023-05-19T04:41:30.283Z,83.24
2023-05-19T04:42:30.304Z,83.09
2023-05-19T04:43:30.265Z,83.09
2023-05-19T04:44:30.278Z,83.14
2023-05-19T04:45:30.590Z,83.20
2023-05-19T04:46:30.308Z,83.31
2023-05-19T04:47:30.673Z,83.44
2023-05-19T04:48:30.662Z,83.42
2023-05-19T04:49:30.191Z,83.47
2023-05-19T04:50:30.346Z,83.44
2023-05-19T04:51:31.050Z,83.44
2023-05-19T04:52:30.183Z,83.41
2023-05-19T04:53:30.966Z,83.31
2023-05-19T04:54:30.290Z,83.09
2023-05-19T04:55:30.915Z,82.97
2023-05-19T04:56:30.264Z,82.83
2023-05-19T04:57:31.056Z,82.77
2023-05-19T04:58:30.124Z,82.77
2023-05-19T04:59:30.066Z,82.71
2023-05-19T05:00:30.161Z,82.60
2023-05-19T05:01:30.116Z,82.57
2023-05-19T05:02:30.090Z,82.48
2023-05-19T05:03:30.148Z,82.36
2023-05-19T05:04:30.030Z,82.19
2023-05-19T05:05:30.064Z,81.94
2023-05-19T05:06:30.021Z,81.70
2023-05-19T05:07:31.667Z,81.26
2023-05-19T05:08:30.059Z,80.88
2023-05-19T05:09:30.059Z,80.28
2023-05-19T05:10:30.127Z,79.56
2023-05-19T05:11:30.063Z,78.74
2023-05-19T05:12:30.064Z,78.26
2023-05-19T05:13:29.922Z,77.55
2023-05-19T05:14:29.951Z,76.57
2023-05-19T05:15:29.982Z,75.46
2023-05-19T05:16:29.979Z,75.17
2023-05-19T05:17:30.059Z,74.76
2023-05-19T05:18:29.900Z,74.53
2023-05-19T05:19:29.991Z,73.60
2023-05-19T05:20:29.947Z,72.74
2023-05-19T05:21:29.959Z,72.25
2023-05-19T05:22:29.810Z,71.60
2023-05-19T05:23:30.043Z,71.40
2023-05-19T05:24:30.064Z,71.20
2023-05-19T05:25:30.128Z,70.79
2023-05-19T05:26:29.798Z,70.41
2023-05-19T05:27:30.074Z,70.04
2023-05-19T05:28:29.866Z,69.57
2023-05-19T05:29:29.774Z,69.08
2023-05-19T05:30:29.723Z,68.66
2023-05-19T05:31:29.697Z,68.03
2023-05-19T05:32:30.154Z,67.42
2023-05-19T05:33:30.100Z,67.74
2023-05-19T05:34:29.700Z,67.70
2023-05-19T05:35:30.168Z,67.41
2023-05-19T05:36:29.673Z,66.78
2023-05-19T05:37:29.645Z,66.88
2023-05-19T05:38:29.624Z,66.60
2023-05-19T05:39:29.639Z,66.21
2023-05-19T05:40:30.091Z,66.25
2023-05-19T05:41:30.087Z,65.68
2023-05-19T05:42:29.800Z,65.18
2023-05-19T05:43:30.092Z,64.73
2023-05-19T05:44:29.566Z,64.28
2023-05-19T05:45:29.647Z,64.41
2023-05-19T05:46:29.586Z,64.56
2023-05-19T05:47:29.569Z,64.35
2023-05-19T05:48:29.537Z,64.17
2023-05-19T05:49:29.493Z,63.59
2023-05-19T05:50:29.502Z,63.67
2023-05-19T05:51:29.468Z,63.89
2023-05-19T05:52:29.554Z,63.83
2023-05-19T05:53:30.050Z,63.45
2023-05-19T05:54:30.109Z,63.59
2023-05-19T05:55:29.421Z,63.58
2023-05-19T05:56:29.450Z,63.42
2023-05-19T05:57:29.481Z,62.98
2023-05-19T05:58:29.404Z,62.41
2023-05-19T05:59:29.403Z,62.05
2023-05-19T06:00:29.380Z,62.02
2023-05-19T06:01:29.373Z,62.29
2023-05-19T06:02:29.427Z,62.73
2023-05-19T06:03:29.356Z,62.74
2023-05-19T06:04:29.748Z,62.73
2023-05-19T06:05:29.860Z,62.78
2023-05-19T06:06:29.336Z,62.93
2023-05-19T06:07:29.298Z,62.74
2023-05-19T06:08:29.889Z,62.39
2023-05-19T06:09:29.286Z,62.19
2023-05-19T06:10:29.304Z,62.43
2023-05-19T06:11:29.332Z,62.30
2023-05-19T06:12:30.028Z,61.95
2023-05-19T06:13:29.370Z,61.25
2023-05-19T06:14:29.243Z,61.56
2023-05-19T06:15:29.212Z,61.62
2023-05-19T06:16:29.479Z,61.48
2023-05-19T06:17:29.520Z,60.97
2023-05-19T06:18:29.180Z,61.41
2023-05-19T06:19:29.263Z,61.48
2023-05-19T06:20:29.679Z,61.38
2023-05-19T06:21:29.138Z,60.87
2023-05-19T06:22:29.158Z,60.54
2023-05-19T06:23:29.116Z,60.61
2023-05-19T06:24:29.120Z,60.44
2023-05-19T06:25:29.083Z,59.73
2023-05-19T06:26:29.092Z,59.59
2023-05-19T06:27:29.065Z,59.25
2023-05-19T06:28:29.076Z,58.61
2023-05-19T06:29:29.129Z,58.56
2023-05-19T06:30:29.082Z,58.31
2023-05-19T06:31:29.062Z,58.34
2023-05-19T06:32:29.084Z,58.14
2023-05-19T06:33:29.404Z,57.63
2023-05-19T06:34:29.009Z,57.47
2023-05-19T06:35:29.134Z,56.74
2023-05-19T06:36:29.135Z,56.14
2023-05-19T06:37:29.130Z,56.67
2023-05-19T06:38:28.978Z,55.69
2023-05-19T06:39:28.993Z,55.59
2023-05-19T06:40:28.953Z,54.72
2023-05-19T06:41:28.980Z,55.12
2023-05-19T06:42:28.912Z,55.69
2023-05-19T06:43:28.925Z,55.31
2023-05-19T06:44:28.888Z,55.63
2023-05-19T06:45:28.885Z,55.22
2023-05-19T06:46:29.210Z,55.66
2023-05-19T06:47:28.943Z,54.71
2023-05-19T06:48:29.150Z,54.13
2023-05-19T06:49:28.813Z,54.32
2023-05-19T06:50:28.829Z,52.10
2023-05-19T06:51:29.141Z,50.71
2023-05-19T06:52:29.153Z,51.17
2023-05-19T06:53:29.141Z,52.34
2023-05-19T06:54:28.783Z,52.34
2023-05-19T06:55:28.761Z,51.94
2023-05-19T06:56:29.158Z,50.43
2023-05-19T06:57:29.154Z,50.49
2023-05-19T06:58:29.161Z,50.24
2023-05-19T06:59:29.156Z,50.92
2023-05-19T07:00:29.160Z,50.38
2023-05-19T07:01:29.191Z,50.84
2023-05-19T07:02:28.731Z,50.68
2023-05-19T07:03:28.804Z,51.23
2023-05-19T07:04:28.662Z,49.82
2023-05-19T07:05:28.635Z,49.92
2023-05-19T07:06:28.796Z,49.66
2023-05-19T07:07:28.808Z,51.25
2023-05-19T07:08:28.639Z,50.24
2023-05-19T07:09:28.622Z,50.24
2023-05-19T07:10:28.648Z,51.36
2023-05-19T07:11:28.568Z,49.08
2023-05-19T07:12:28.560Z,49.37
2023-05-19T07:13:28.595Z,51.30
2023-05-19T07:14:28.910Z,50.88
2023-05-19T07:15:29.032Z,50.15
2023-05-19T07:16:29.119Z,51.06
2023-05-19T07:17:28.518Z,50.19
2023-05-19T07:18:28.501Z,49.42
2023-05-19T07:19:28.608Z,49.38
2023-05-19T07:20:28.497Z,49.74
2023-05-19T07:21:28.443Z,49.46
2023-05-19T07:22:28.462Z,49.64
2023-05-19T07:23:28.433Z,50.82
2023-05-19T07:24:28.654Z,51.02
2023-05-19T07:25:28.394Z,50.79
2023-05-19T07:26:28.456Z,50.67
2023-05-19T07:27:28.394Z,50.66
2023-05-19T07:28:28.794Z,51.29
2023-05-19T07:29:28.362Z,51.63
2023-05-19T07:30:28.875Z,51.09
2023-05-19T07:31:28.580Z,51.26
2023-05-19T07:32:29.016Z,51.55
2023-05-19T07:33:28.314Z,51.69
2023-05-19T07:34:29.020Z,51.25
2023-05-19T07:35:28.325Z,51.63
2023-05-19T07:36:29.078Z,52.16
2023-05-19T07:37:28.253Z,51.68
2023-05-19T07:38:28.316Z,51.11
2023-05-19T07:39:28.242Z,51.73
2023-05-19T07:40:28.250Z,52.02
2023-05-19T07:41:28.300Z,52.17
2023-05-19T07:42:29.164Z,52.06
2023-05-19T07:43:28.204Z,51.98
2023-05-19T07:44:28.207Z,52.05
2023-05-19T07:45:28.185Z,51.88
2023-05-19T07:46:28.341Z,51.57
2023-05-19T07:47:28.186Z,51.92
2023-05-19T07:48:28.147Z,52.06
2023-05-19T07:49:28.179Z,52.13
2023-05-19T07:50:28.119Z,52.21
2023-05-19T07:51:28.111Z,52.32
2023-05-19T07:52:28.131Z,51.42
2023-05-19T07:53:28.081Z,52.21
2023-05-19T07:54:28.079Z,52.95
2023-05-19T07:55:28.090Z,52.21
2023-05-19T07:56:28.037Z,54.09
2023-05-19T07:57:28.063Z,52.85
2023-05-19T07:58:28.021Z,52.98
2023-05-19T07:59:28.199Z,52.30
2023-05-19T08:00:28.000Z,51.76
2023-05-19T08:01:28.021Z,49.75
2023-05-19T08:02:28.059Z,51.09
2023-05-19T08:03:28.154Z,51.30
2023-05-19T08:04:28.011Z,51.96
2023-05-19T08:05:27.977Z,51.63
2023-05-19T08:06:27.948Z,50.84
2023-05-19T08:07:27.955Z,50.33
2023-05-19T08:08:27.912Z,49.95
2023-05-19T08:09:27.935Z,50.55
2023-05-19T08:10:27.890Z,49.89
2023-05-19T08:11:27.882Z,50.10
2023-05-19T08:12:27.863Z,50.89
2023-05-19T08:13:27.875Z,50.78
2023-05-19T08:14:28.214Z,50.23
2023-05-19T08:15:27.951Z,50.22
2023-05-19T08:16:28.278Z,48.82
2023-05-19T08:17:27.896Z,49.26
2023-05-19T08:18:27.940Z,51.05
2023-05-19T08:19:27.889Z,51.55
2023-05-19T08:20:27.793Z,52.01
2023-05-19T08:21:27.788Z,50.79
2023-05-19T08:22:27.762Z,50.03
2023-05-19T08:23:27.799Z,50.15
2023-05-19T08:24:27.743Z,50.50
2023-05-19T08:25:27.747Z,49.99
2023-05-19T08:26:27.723Z,49.99
2023-05-19T08:27:27.739Z,50.63
2023-05-19T08:28:27.801Z,51.34
2023-05-19T08:29:27.689Z,52.54
2023-05-19T08:30:27.660Z,51.51
2023-05-19T08:31:27.683Z,51.44
2023-05-19T08:32:27.672Z,52.81
2023-05-19T08:33:27.651Z,53.63
2023-05-19T08:34:27.635Z,53.20
2023-05-19T08:35:27.646Z,51.77
2023-05-19T08:36:27.610Z,50.46
2023-05-19T08:37:27.604Z,50.93
2023-05-19T08:38:27.591Z,51.38
2023-05-19T08:39:27.567Z,50.79
2023-05-19T08:40:28.245Z,49.39
2023-05-19T08:41:28.252Z,49.36
2023-05-19T08:42:27.558Z,51.94
2023-05-19T08:43:27.562Z,52.14
2023-05-19T08:44:27.502Z,50.80
2023-05-19T08:45:27.511Z,49.09
2023-05-19T08:46:27.527Z,49.74
2023-05-19T08:47:27.531Z,48.43
2023-05-19T08:48:27.447Z,47.69
2023-05-19T08:49:27.485Z,48.51
2023-05-19T08:50:27.450Z,49.74
2023-05-19T08:51:27.427Z,49.36
2023-05-19T08:52:27.409Z,47.93
2023-05-19T08:53:34.078Z,48.26
2023-05-19T08:54:28.379Z,47.07
2023-05-19T08:55:27.390Z,48.05
2023-05-19T08:56:27.359Z,48.28
2023-05-19T08:57:27.383Z,48.50
2023-05-19T08:58:28.752Z,48.79
2023-05-19T08:59:27.337Z,47.97
2023-05-19T09:00:27.313Z,47.67
2023-05-19T09:01:27.376Z,48.98
2023-05-19T09:02:27.347Z,48.47
2023-05-19T09:03:27.357Z,48.34
2023-05-19T09:04:29.062Z,49.69
2023-05-19T09:05:27.307Z,47.96
2023-05-19T09:06:27.256Z,47.53
2023-05-19T09:07:27.260Z,46.84
2023-05-19T09:08:27.232Z,48.07
2023-05-19T09:09:27.251Z,47.00
2023-05-19T09:10:29.043Z,47.87
2023-05-19T09:11:27.202Z,46.52
2023-05-19T09:12:27.173Z,45.93
2023-05-19T09:13:27.216Z,45.66
2023-05-19T09:14:27.171Z,47.15
2023-05-19T09:15:27.171Z,47.14
2023-05-19T09:16:29.877Z,48.03
2023-05-19T09:17:27.155Z,47.60
2023-05-19T09:18:27.130Z,49.04
2023-05-19T09:19:27.231Z,45.66
2023-05-19T09:20:27.087Z,46.62
2023-05-19T09:21:27.083Z,47.43
2023-05-19T09:22:27.063Z,48.15
2023-05-19T09:23:27.078Z,47.14
2023-05-19T09:24:27.055Z,46.22
2023-05-19T09:25:27.028Z,46.34
2023-05-19T09:26:27.025Z,46.21
2023-05-19T09:27:27.025Z,46.10
2023-05-19T09:28:27.000Z,45.14
2023-05-19T09:29:27.012Z,44.50
2023-05-19T09:30:26.964Z,44.96
2023-05-19T09:31:27.063Z,47.29
2023-05-19T09:32:27.465Z,46.77
2023-05-19T09:33:26.942Z,48.05
2023-05-19T09:34:26.946Z,48.90
2023-05-19T09:35:26.922Z,47.74
2023-05-19T09:36:26.895Z,46.76
2023-05-19T09:37:26.920Z,46.79
2023-05-19T09:38:26.957Z,43.94
2023-05-19T09:39:26.922Z,45.08
2023-05-19T09:40:26.851Z,45.80
2023-05-19T09:41:26.858Z,45.57
2023-05-19T09:42:26.837Z,45.96
2023-05-19T09:43:26.843Z,46.78
2023-05-19T09:44:27.142Z,48.67
2023-05-19T09:45:26.816Z,47.53
2023-05-19T09:46:26.973Z,47.50
2023-05-19T09:47:27.331Z,46.64
2023-05-19T09:48:26.808Z,46.06
2023-05-19T09:49:26.772Z,46.12
2023-05-19T09:50:26.730Z,46.61
2023-05-19T09:51:26.951Z,43.05
2023-05-19T09:52:26.706Z,43.01
2023-05-19T09:53:26.772Z,44.11
2023-05-19T09:54:26.681Z,44.50
2023-05-19T09:55:26.842Z,43.40
2023-05-19T09:56:26.846Z,46.54
2023-05-19T09:57:27.294Z,45.49
2023-05-19T09:58:26.648Z,44.74
2023-05-19T09:59:29.753Z,44.63
2023-05-19T10:00:27.293Z,42.92
2023-05-19T10:01:26.780Z,42.45
2023-05-19T10:02:26.694Z,43.58
2023-05-19T10:03:26.616Z,40.85
2023-05-19T10:04:26.596Z,40.33
2023-05-19T10:05:26.632Z,41.70
2023-05-19T10:06:26.569Z,42.46
2023-05-19T10:07:26.592Z,41.88
2023-05-19T10:08:26.640Z,42.24
2023-05-19T10:09:26.541Z,41.81
2023-05-19T10:10:26.561Z,42.63
2023-05-19T10:11:26.955Z,42.88
2023-05-19T10:12:26.647Z,42.37
2023-05-19T10:13:26.653Z,41.84
2023-05-19T10:14:26.462Z,41.91
2023-05-19T10:15:26.471Z,43.90
2023-05-19T10:16:27.171Z,44.70
2023-05-19T10:17:27.251Z,42.96
2023-05-19T10:18:26.444Z,43.24
2023-05-19T10:19:27.427Z,44.81
2023-05-19T10:20:26.391Z,42.07
2023-05-19T10:21:26.401Z,42.23
2023-05-19T10:22:26.371Z,43.03
2023-05-19T10:23:27.333Z,43.60
2023-05-19T10:24:26.385Z,41.16
2023-05-19T10:25:26.361Z,39.96
2023-05-19T10:26:26.321Z,39.07
2023-05-19T10:27:26.330Z,40.17
2023-05-19T10:28:26.736Z,40.36
2023-05-19T10:29:26.307Z,39.33
2023-05-19T10:30:26.290Z,39.50
2023-05-19T10:31:26.287Z,40.19
2023-05-19T10:32:26.374Z,42.11
2023-05-19T10:33:26.442Z,41.60
2023-05-19T10:34:26.416Z,39.88
2023-05-19T10:35:26.255Z,41.26
2023-05-19T10:36:26.237Z,41.08
2023-05-19T10:37:26.217Z,42.84
2023-05-19T10:38:26.700Z,42.67
2023-05-19T10:39:26.333Z,42.29
2023-05-19T10:40:26.171Z,41.15
2023-05-19T10:41:26.754Z,41.18
2023-05-19T10:42:26.168Z,42.25
2023-05-19T10:43:26.181Z,40.60
2023-05-19T10:44:26.116Z,40.84
2023-05-19T10:45:26.151Z,41.04
2023-05-19T10:46:26.194Z,39.90
2023-05-19T10:47:26.203Z,40.29
2023-05-19T10:48:26.254Z,40.73
2023-05-19T10:49:26.084Z,40.35
2023-05-19T10:50:26.050Z,39.55
2023-05-19T10:51:26.072Z,40.66
2023-05-19T10:52:26.378Z,40.79
2023-05-19T10:53:26.202Z,40.13
2023-05-19T10:54:26.009Z,39.90
2023-05-19T10:55:26.254Z,40.58
2023-05-19T10:56:26.343Z,41.06
2023-05-19T10:57:25.989Z,42.02
2023-05-19T10:58:25.975Z,42.57
2023-05-19T10:59:27.332Z,40.48
2023-05-19T11:00:25.952Z,40.56
2023-05-19T11:01:25.998Z,40.30
2023-05-19T11:02:26.054Z,40.26
2023-05-19T11:03:25.958Z,40.57
2023-05-19T11:04:26.414Z,40.31
2023-05-19T11:05:26.355Z,40.47
2023-05-19T11:06:25.883Z,40.92
2023-05-19T11:07:26.378Z,39.67
2023-05-19T11:08:25.855Z,39.55
2023-05-19T11:09:37.862Z,39.31
2023-05-19T11:10:26.863Z,40.48
2023-05-19T11:11:25.836Z,39.68
2023-05-19T11:12:25.827Z,40.98
2023-05-19T11:13:26.146Z,39.78
2023-05-19T11:14:26.362Z,39.80
2023-05-19T11:15:26.451Z,40.03
2023-05-19T11:16:26.437Z,40.10
2023-05-19T11:17:25.925Z,42.10
2023-05-19T11:18:25.747Z,42.78
2023-05-19T11:19:26.176Z,40.29
2023-05-19T11:20:25.848Z,42.22
2023-05-19T11:21:25.979Z,40.94
2023-05-19T11:22:25.893Z,39.94
2023-05-19T11:23:25.980Z,40.12
2023-05-19T11:24:25.694Z,40.53
2023-05-19T11:25:25.701Z,38.40
2023-05-19T11:26:25.665Z,40.35
2023-05-19T11:27:25.659Z,39.86
2023-05-19T11:28:25.657Z,40.34
2023-05-19T11:29:25.628Z,40.32
2023-05-19T11:30:25.776Z,41.34
2023-05-19T11:31:25.896Z,40.78
2023-05-19T11:32:25.632Z,40.76
2023-05-19T11:33:26.072Z,40.33
2023-05-19T11:34:25.542Z,40.52
2023-05-19T11:35:25.592Z,40.22
2023-05-19T11:36:25.902Z,40.55
2023-05-19T11:37:25.555Z,40.68
2023-05-19T11:38:25.507Z,39.58
2023-05-19T11:39:26.300Z,40.55
2023-05-19T11:40:26.269Z,40.61
2023-05-19T11:41:26.381Z,39.16
2023-05-19T11:42:25.489Z,38.84
2023-05-19T11:43:26.396Z,38.49
2023-05-19T11:44:26.393Z,38.87
2023-05-19T11:45:25.473Z,38.80
2023-05-19T11:46:25.517Z,39.82
2023-05-19T11:47:26.438Z,41.70
2023-05-19T11:48:26.522Z,39.73
2023-05-19T11:49:25.418Z,39.09
2023-05-19T11:50:25.382Z,40.74
2023-05-19T11:51:26.024Z,39.54
2023-05-19T11:52:25.392Z,38.54
2023-05-19T11:53:25.405Z,39.44
2023-05-19T11:54:25.881Z,38.77
2023-05-19T11:55:25.398Z,39.47
2023-05-19T11:56:26.268Z,39.76
2023-05-19T11:57:25.520Z,41.21
2023-05-19T11:58:26.077Z,38.47
2023-05-19T11:59:25.390Z,38.66
2023-05-19T12:00:25.388Z,40.24
2023-05-19T12:01:25.872Z,39.14
2023-05-19T12:02:26.266Z,40.63
2023-05-19T12:03:26.522Z,38.66
2023-05-19T12:04:25.252Z,38.95
2023-05-19T12:05:25.384Z,39.21
2023-05-19T12:06:25.361Z,39.71
2023-05-19T12:07:25.355Z,39.79
2023-05-19T12:08:25.396Z,38.08
2023-05-19T12:09:25.435Z,38.42
2023-05-19T12:10:25.192Z,39.54
2023-05-19T12:11:25.197Z,39.47
2023-05-19T12:12:25.221Z,39.07
2023-05-19T12:13:25.154Z,41.26
2023-05-19T12:14:25.305Z,39.88
2023-05-19T12:15:25.295Z,40.24
2023-05-19T12:16:25.129Z,38.38
2023-05-19T12:17:25.077Z,38.32
2023-05-19T12:18:25.379Z,37.27
2023-05-19T12:19:25.522Z,36.81
2023-05-19T12:20:25.057Z,36.69
2023-05-19T12:21:25.014Z,35.80
2023-05-19T12:22:26.840Z,35.91
2023-05-19T12:23:25.415Z,36.01
2023-05-19T12:24:25.403Z,35.49
2023-05-19T12:25:24.994Z,36.34
2023-05-19T12:26:24.982Z,36.38
2023-05-19T12:27:24.955Z,36.88
2023-05-19T12:28:25.415Z,37.20
2023-05-19T12:29:24.928Z,37.49
2023-05-19T12:30:24.938Z,38.24
2023-05-19T12:31:25.464Z,37.66
2023-05-19T12:32:25.000Z,36.40
2023-05-19T12:33:25.054Z,36.90
2023-05-19T12:34:24.892Z,36.46
2023-05-19T12:35:25.091Z,36.07
2023-05-19T12:36:24.853Z,36.42
2023-05-19T12:37:24.829Z,36.79
2023-05-19T12:38:25.426Z,37.66
2023-05-19T12:39:24.845Z,36.73
2023-05-19T12:40:24.834Z,36.46
2023-05-19T12:41:25.424Z,36.77
2023-05-19T12:42:24.803Z,36.19
2023-05-19T12:43:25.427Z,37.44
2023-05-19T12:44:24.781Z,37.40
2023-05-19T12:45:24.780Z,36.76
2023-05-19T12:46:24.860Z,36.84
2023-05-19T12:47:24.777Z,35.85
2023-05-19T12:48:24.888Z,36.33
2023-05-19T12:49:24.705Z,36.45
2023-05-19T12:50:24.987Z,36.84
2023-05-19T12:51:24.723Z,37.78
2023-05-19T12:52:25.071Z,35.52